Terminal Aerodrome Forecast
Issued by NWS Charleston, WV

Current Version | Previous Version | Graphics & Text | Print | Product List | Glossary On
Versions: 1 2 3 4 5 6 7 8 9 10 11 12 13 14 15 16 17 18 19 20 21 22 23 24 25 26 27 28 29 30 31 32 33
000
FTUS41 KRLX 202300
TAFPKB
TAF
KPKB 202340Z 2100/2124 VRB03KT 6SM -SHRA BR OVC060
      TEMPO 2100/2101 4SM -SHRA BR
     FM210500 23004KT P6SM BKN025
     FM210800 25004KT P6SM BKN035
     FM211300 28005KT P6SM BKN035
     FM211800 32007KT P6SM OVC025
     FM212000 31007KT P6SM OVC035=

USA.gov is the U.S. government's official web portal to all federal, state and local government web resources and services.